Clifton, Arizona
Current Conditions -  °F | °C
As of 8:51 AM on Friday 28 Nov 2014 (Local Time) from KSAD Reporting Station
Clear Clear  
Wind Chill: 55°   Ceiling: Unl
Heat Index: 55°   Visibility: 10mi
Dew Point: 22°   Wind: 12mph
Humidity: 28%   Direction: 120°ESE
Pressure: 30.22"   Gusts: NA
Location:  33.05°N, 109.3°W
Report Text: KSAD 281551Z AUTO 12010KT 10SM CLR 13/M06 A3022 RMK AO2 SLP212 T01281056
Loading
Personal Weather Stations






























Interactive Weather Map New forecast layout! Learn more

10-Day Weather Forecast

Advertisements
Track Severe Weather on mobile